sensor_id;sensor_type;location;lat;lon;timestamp;pressure;altitude;pressure_sealevel;temperature;humidity
43125;BME280;49182;50.788;7.318;2022-08-20T00:01:08;100763.09;;;21.32;75.68
43125;BME280;49182;50.788;7.318;2022-08-20T00:03:36;100765.78;;;21.32;75.88
43125;BME280;49182;50.788;7.318;2022-08-20T00:06:08;100770.34;;;21.32;75.64
43125;BME280;49182;50.788;7.318;2022-08-20T00:08:36;100762.06;;;21.33;75.99
43125;BME280;49182;50.788;7.318;2022-08-20T00:11:07;100769.50;;;21.31;77.38
43125;BME280;49182;50.788;7.318;2022-08-20T00:13:35;100758.91;;;21.23;77.75
43125;BME280;49182;50.788;7.318;2022-08-20T00:16:03;100761.03;;;21.28;77.10
43125;BME280;49182;50.788;7.318;2022-08-20T00:18:30;100749.00;;;21.24;77.18
43125;BME280;49182;50.788;7.318;2022-08-20T00:20:57;100759.38;;;21.27;78.07
43125;BME280;49182;50.788;7.318;2022-08-20T00:23:24;100764.09;;;21.25;78.57
43125;BME280;49182;50.788;7.318;2022-08-20T00:25:51;100754.19;;;21.25;78.65
43125;BME280;49182;50.788;7.318;2022-08-20T00:28:19;100746.72;;;21.21;78.19
43125;BME280;49182;50.788;7.318;2022-08-20T00:30:46;100766.38;;;21.21;78.52
43125;BME280;49182;50.788;7.318;2022-08-20T00:33:15;100759.72;;;21.17;78.68
43125;BME280;49182;50.788;7.318;2022-08-20T00:35:45;100751.91;;;21.22;78.20
43125;BME280;49182;50.788;7.318;2022-08-20T00:38:12;100751.09;;;21.22;78.23
43125;BME280;49182;50.788;7.318;2022-08-20T00:40:42;100748.59;;;21.20;78.00
43125;BME280;49182;50.788;7.318;2022-08-20T00:43:27;100742.56;;;21.18;77.85
43125;BME280;49182;50.788;7.318;2022-08-20T00:45:55;100745.91;;;21.20;78.04
43125;BME280;49182;50.788;7.318;2022-08-20T00:48:22;100748.59;;;21.20;78.07
43125;BME280;49182;50.788;7.318;2022-08-20T00:50:48;100759.53;;;21.19;77.99
43125;BME280;49182;50.788;7.318;2022-08-20T00:53:16;100755.56;;;21.15;78.09
43125;BME280;49182;50.788;7.318;2022-08-20T00:55:45;100760.09;;;21.14;77.92
43125;BME280;49182;50.788;7.318;2022-08-20T00:58:12;100753.06;;;21.13;78.08
43125;BME280;49182;50.788;7.318;2022-08-20T01:00:43;100767.50;;;21.12;78.66
43125;BME280;49182;50.788;7.318;2022-08-20T01:03:13;100765.06;;;21.11;78.47
43125;BME280;49182;50.788;7.318;2022-08-20T01:05:42;100766.69;;;21.12;78.78
43125;BME280;49182;50.788;7.318;2022-08-20T01:08:09;100764.59;;;21.07;79.56
43125;BME280;49182;50.788;7.318;2022-08-20T01:14:29;100765.81;;;20.98;79.86
43125;BME280;49182;50.788;7.318;2022-08-20T01:16:59;100754.59;;;20.88;80.26
43125;BME280;49182;50.788;7.318;2022-08-20T01:19:30;100766.00;;;20.96;80.04
43125;BME280;49182;50.788;7.318;2022-08-20T01:21:58;100767.41;;;20.86;81.01
43125;BME280;49182;50.788;7.318;2022-08-20T01:24:31;100761.19;;;20.85;80.67
43125;BME280;49182;50.788;7.318;2022-08-20T01:27:03;100762.63;;;20.88;81.18
43125;BME280;49182;50.788;7.318;2022-08-20T01:29:35;100764.31;;;20.89;81.02
43125;BME280;49182;50.788;7.318;2022-08-20T01:32:03;100760.13;;;20.86;80.90
43125;BME280;49182;50.788;7.318;2022-08-20T01:34:29;100760.78;;;20.88;80.99
43125;BME280;49182;50.788;7.318;2022-08-20T01:36:57;100758.50;;;20.85;81.63
43125;BME280;49182;50.788;7.318;2022-08-20T01:39:26;100760.75;;;20.82;81.65
43125;BME280;49182;50.788;7.318;2022-08-20T01:42:00;100760.50;;;20.77;82.08
43125;BME280;49182;50.788;7.318;2022-08-20T01:44:30;100759.41;;;20.65;83.27
43125;BME280;49182;50.788;7.318;2022-08-20T01:47:07;100753.38;;;20.63;83.38
43125;BME280;49182;50.788;7.318;2022-08-20T01:49:39;100754.25;;;20.70;83.03
43125;BME280;49182;50.788;7.318;2022-08-20T01:52:08;100758.19;;;20.67;82.96
43125;BME280;49182;50.788;7.318;2022-08-20T01:54:36;100744.31;;;20.64;82.99
43125;BME280;49182;50.788;7.318;2022-08-20T01:57:09;100751.94;;;20.60;83.95
43125;BME280;49182;50.788;7.318;2022-08-20T01:59:39;100748.63;;;20.58;84.21
43125;BME280;49182;50.788;7.318;2022-08-20T02:02:07;100753.97;;;20.58;83.74
43125;BME280;49182;50.788;7.318;2022-08-20T02:04:35;100744.28;;;20.57;84.11
43125;BME280;49182;50.788;7.318;2022-08-20T02:07:05;100752.97;;;20.59;83.62
43125;BME280;49182;50.788;7.318;2022-08-20T02:09:34;100754.81;;;20.58;83.70
43125;BME280;49182;50.788;7.318;2022-08-20T02:12:02;100760.19;;;20.58;83.60
43125;BME280;49182;50.788;7.318;2022-08-20T02:14:29;100757.25;;;20.53;84.26
43125;BME280;49182;50.788;7.318;2022-08-20T02:16:58;100765.06;;;20.48;84.89
43125;BME280;49182;50.788;7.318;2022-08-20T02:19:28;100759.66;;;20.42;84.84
43125;BME280;49182;50.788;7.318;2022-08-20T02:21:59;100767.06;;;20.40;85.65
43125;BME280;49182;50.788;7.318;2022-08-20T02:24:27;100770.75;;;20.39;85.37
43125;BME280;49182;50.788;7.318;2022-08-20T02:26:54;100776.19;;;20.24;86.69
43125;BME280;49182;50.788;7.318;2022-08-20T02:29:21;100780.66;;;20.17;87.13
43125;BME280;49182;50.788;7.318;2022-08-20T02:31:48;100782.44;;;20.10;87.40
43125;BME280;49182;50.788;7.318;2022-08-20T02:34:36;100783.84;;;20.06;87.69
43125;BME280;49182;50.788;7.318;2022-08-20T02:37:05;100789.84;;;20.08;87.23
43125;BME280;49182;50.788;7.318;2022-08-20T02:39:33;100774.59;;;20.08;86.71
43125;BME280;49182;50.788;7.318;2022-08-20T02:42:00;100776.69;;;20.13;85.91
43125;BME280;49182;50.788;7.318;2022-08-20T02:44:27;100765.41;;;20.17;85.53
43125;BME280;49182;50.788;7.318;2022-08-20T02:46:53;100765.59;;;20.16;85.08
43125;BME280;49182;50.788;7.318;2022-08-20T02:49:20;100767.63;;;20.14;84.79
43125;BME280;49182;50.788;7.318;2022-08-20T02:51:48;100779.75;;;20.10;85.26
43125;BME280;49182;50.788;7.318;2022-08-20T02:54:14;100781.56;;;20.03;86.00
43125;BME280;49182;50.788;7.318;2022-08-20T02:56:41;100774.91;;;19.99;85.68
43125;BME280;49182;50.788;7.318;2022-08-20T02:59:08;100782.38;;;20.03;85.59
43125;BME280;49182;50.788;7.318;2022-08-20T03:01:37;100783.78;;;19.99;86.30
43125;BME280;49182;50.788;7.318;2022-08-20T03:04:04;100787.69;;;19.97;86.13
43125;BME280;49182;50.788;7.318;2022-08-20T03:06:31;100789.72;;;19.95;85.98
43125;BME280;49182;50.788;7.318;2022-08-20T03:08:59;100789.09;;;19.93;86.07
43125;BME280;49182;50.788;7.318;2022-08-20T03:11:25;100784.69;;;19.85;86.23
43125;BME280;49182;50.788;7.318;2022-08-20T03:13:52;100789.84;;;19.87;86.21
43125;BME280;49182;50.788;7.318;2022-08-20T03:16:19;100789.56;;;19.82;86.66
43125;BME280;49182;50.788;7.318;2022-08-20T03:18:46;100789.13;;;19.78;86.94
43125;BME280;49182;50.788;7.318;2022-08-20T03:21:17;100793.22;;;19.74;86.88
43125;BME280;49182;50.788;7.318;2022-08-20T03:23:44;100786.78;;;19.68;87.51
43125;BME280;49182;50.788;7.318;2022-08-20T03:26:12;100785.28;;;19.66;87.58
43125;BME280;49182;50.788;7.318;2022-08-20T03:28:40;100792.16;;;19.54;88.61
43125;BME280;49182;50.788;7.318;2022-08-20T03:31:07;100788.63;;;19.53;87.94
43125;BME280;49182;50.788;7.318;2022-08-20T03:33:34;100792.72;;;19.49;88.03
43125;BME280;49182;50.788;7.318;2022-08-20T03:36:01;100792.25;;;19.46;88.38
43125;BME280;49182;50.788;7.318;2022-08-20T03:38:27;100786.25;;;19.44;88.08
43125;BME280;49182;50.788;7.318;2022-08-20T03:40:59;100784.94;;;19.39;88.23
43125;BME280;49182;50.788;7.318;2022-08-20T03:43:27;100781.63;;;19.37;88.13
43125;BME280;49182;50.788;7.318;2022-08-20T03:45:54;100782.00;;;19.34;87.83
43125;BME280;49182;50.788;7.318;2022-08-20T03:48:21;100785.84;;;19.32;87.68
43125;BME280;49182;50.788;7.318;2022-08-20T03:50:49;100787.91;;;19.30;87.78
43125;BME280;49182;50.788;7.318;2022-08-20T03:53:16;100783.94;;;19.26;87.72
43125;BME280;49182;50.788;7.318;2022-08-20T03:55:45;100796.50;;;19.25;87.82
43125;BME280;49182;50.788;7.318;2022-08-20T03:58:21;100788.84;;;19.22;88.31
43125;BME280;49182;50.788;7.318;2022-08-20T04:01:04;100787.00;;;19.23;88.29
43125;BME280;49182;50.788;7.318;2022-08-20T04:03:31;100781.66;;;19.23;88.29
43125;BME280;49182;50.788;7.318;2022-08-20T04:05:58;100783.66;;;19.21;88.33
43125;BME280;49182;50.788;7.318;2022-08-20T04:08:27;100783.66;;;19.21;88.35
43125;BME280;49182;50.788;7.318;2022-08-20T04:10:55;100781.66;;;19.23;88.53
43125;BME280;49182;50.788;7.318;2022-08-20T04:13:22;100776.72;;;19.26;88.84
43125;BME280;49182;50.788;7.318;2022-08-20T04:15:50;100782.75;;;19.28;89.02
43125;BME280;49182;50.788;7.318;2022-08-20T04:18:18;100788.28;;;19.27;89.21
43125;BME280;49182;50.788;7.318;2022-08-20T04:20:46;100797.97;;;19.28;88.84
43125;BME280;49182;50.788;7.318;2022-08-20T04:23:13;100787.25;;;19.28;88.95
43125;BME280;49182;50.788;7.318;2022-08-20T04:25:40;100796.97;;;19.29;89.01
43125;BME280;49182;50.788;7.318;2022-08-20T04:28:11;100788.53;;;19.32;88.96
43125;BME280;49182;50.788;7.318;2022-08-20T04:30:40;100792.03;;;19.32;89.20
43125;BME280;49182;50.788;7.318;2022-08-20T04:33:13;100794.38;;;19.35;88.92
43125;BME280;49182;50.788;7.318;2022-08-20T04:35:46;100792.53;;;19.36;88.83
43125;BME280;49182;50.788;7.318;2022-08-20T04:38:14;100795.19;;;19.36;88.85
43125;BME280;49182;50.788;7.318;2022-08-20T04:40:41;100805.09;;;19.35;89.35
43125;BME280;49182;50.788;7.318;2022-08-20T04:43:07;100808.13;;;19.32;89.87
43125;BME280;49182;50.788;7.318;2022-08-20T04:45:38;100811.09;;;19.37;89.48
43125;BME280;49182;50.788;7.318;2022-08-20T04:48:05;100820.56;;;19.40;89.55
43125;BME280;49182;50.788;7.318;2022-08-20T04:50:38;100820.41;;;19.42;89.35
43125;BME280;49182;50.788;7.318;2022-08-20T04:53:08;100828.03;;;19.45;89.69
43125;BME280;49182;50.788;7.318;2022-08-20T04:55:37;100830.63;;;19.38;90.21
43125;BME280;49182;50.788;7.318;2022-08-20T04:58:06;100841.75;;;19.35;90.32
43125;BME280;49182;50.788;7.318;2022-08-20T05:00:34;100840.34;;;19.39;89.94
43125;BME280;49182;50.788;7.318;2022-08-20T05:03:00;100840.81;;;19.43;89.74
43125;BME280;49182;50.788;7.318;2022-08-20T05:05:27;100841.13;;;19.48;89.37
43125;BME280;49182;50.788;7.318;2022-08-20T05:07:54;100839.28;;;19.48;89.14
43125;BME280;49182;50.788;7.318;2022-08-20T05:10:22;100843.03;;;19.54;88.77
43125;BME280;49182;50.788;7.318;2022-08-20T05:12:49;100841.84;;;19.56;89.01
43125;BME280;49182;50.788;7.318;2022-08-20T05:15:22;100834.25;;;19.60;88.97
43125;BME280;49182;50.788;7.318;2022-08-20T05:17:53;100834.53;;;19.65;89.13
43125;BME280;49182;50.788;7.318;2022-08-20T05:20:21;100843.84;;;19.69;88.91
43125;BME280;49182;50.788;7.318;2022-08-20T05:22:47;100842.63;;;19.71;88.68
43125;BME280;49182;50.788;7.318;2022-08-20T05:25:14;100851.34;;;19.73;88.27
43125;BME280;49182;50.788;7.318;2022-08-20T05:27:42;100847.09;;;19.64;88.90
43125;BME280;49182;50.788;7.318;2022-08-20T05:30:13;100856.59;;;19.67;88.67
43125;BME280;49182;50.788;7.318;2022-08-20T05:32:40;100856.59;;;19.67;88.73
43125;BME280;49182;50.788;7.318;2022-08-20T05:35:10;100850.84;;;19.70;88.61
43125;BME280;49182;50.788;7.318;2022-08-20T05:37:38;100837.13;;;19.58;89.06
43125;BME280;49182;50.788;7.318;2022-08-20T05:40:08;100859.91;;;19.69;89.16
43125;BME280;49182;50.788;7.318;2022-08-20T05:42:35;100849.00;;;19.70;89.03
43125;BME280;49182;50.788;7.318;2022-08-20T05:45:04;100855.03;;;19.72;88.83
43125;BME280;49182;50.788;7.318;2022-08-20T05:47:38;100860.19;;;19.74;88.87
43125;BME280;49182;50.788;7.318;2022-08-20T05:50:09;100869.88;;;19.75;89.33
43125;BME280;49182;50.788;7.318;2022-08-20T05:52:46;100870.91;;;19.74;89.91
43125;BME280;49182;50.788;7.318;2022-08-20T05:55:12;100860.81;;;19.76;89.53
43125;BME280;49182;50.788;7.318;2022-08-20T05:57:39;100857.97;;;19.77;89.82
43125;BME280;49182;50.788;7.318;2022-08-20T06:00:12;100842.47;;;19.73;89.61
43125;BME280;49182;50.788;7.318;2022-08-20T06:02:39;100851.84;;;19.84;89.49
43125;BME280;49182;50.788;7.318;2022-08-20T06:05:06;100862.00;;;19.88;89.54
43125;BME280;49182;50.788;7.318;2022-08-20T06:07:33;100858.78;;;19.93;89.57
43125;BME280;49182;50.788;7.318;2022-08-20T06:09:59;100849.44;;;19.89;89.78
43125;BME280;49182;50.788;7.318;2022-08-20T06:12:26;100853.59;;;19.91;89.87
43125;BME280;49182;50.788;7.318;2022-08-20T06:14:52;100856.09;;;19.93;89.67
43125;BME280;49182;50.788;7.318;2022-08-20T06:17:20;100862.34;;;20.00;89.99
43125;BME280;49182;50.788;7.318;2022-08-20T06:19:47;100863.38;;;19.99;90.08
43125;BME280;49182;50.788;7.318;2022-08-20T06:22:15;100867.00;;;19.91;90.66
43125;BME280;49182;50.788;7.318;2022-08-20T06:24:50;100871.13;;;19.94;90.38
43125;BME280;49182;50.788;7.318;2022-08-20T06:27:17;100869.28;;;19.94;89.92
43125;BME280;49182;50.788;7.318;2022-08-20T06:29:45;100870.78;;;19.97;89.75
43125;BME280;49182;50.788;7.318;2022-08-20T06:32:11;100881.16;;;19.85;89.98
43125;BME280;49182;50.788;7.318;2022-08-20T06:34:39;100873.69;;;19.81;90.60
43125;BME280;49182;50.788;7.318;2022-08-20T06:37:18;100876.28;;;19.74;90.26
43125;BME280;49182;50.788;7.318;2022-08-20T06:39:45;100868.69;;;19.63;89.88
43125;BME280;49182;50.788;7.318;2022-08-20T06:42:12;100880.06;;;19.65;89.31
43125;BME280;49182;50.788;7.318;2022-08-20T06:44:47;100880.63;;;19.60;89.96
43125;BME280;49182;50.788;7.318;2022-08-20T06:47:14;100876.25;;;19.45;90.71
43125;BME280;49182;50.788;7.318;2022-08-20T06:49:42;100881.00;;;19.57;89.97
43125;BME280;49182;50.788;7.318;2022-08-20T06:52:09;100871.59;;;19.47;90.19
43125;BME280;49182;50.788;7.318;2022-08-20T06:54:37;100881.47;;;19.46;90.73
43125;BME280;49182;50.788;7.318;2022-08-20T06:57:04;100879.53;;;19.55;90.19
43125;BME280;49182;50.788;7.318;2022-08-20T06:59:30;100890.53;;;19.60;90.19
43125;BME280;49182;50.788;7.318;2022-08-20T07:01:57;100896.88;;;19.59;89.62
43125;BME280;49182;50.788;7.318;2022-08-20T07:04:25;100888.66;;;19.60;89.21
43125;BME280;49182;50.788;7.318;2022-08-20T07:06:54;100892.75;;;19.56;88.70
43125;BME280;49182;50.788;7.318;2022-08-20T07:09:21;100898.00;;;19.50;89.10
43125;BME280;49182;50.788;7.318;2022-08-20T07:11:47;100897.69;;;19.45;88.50
43125;BME280;49182;50.788;7.318;2022-08-20T07:14:15;100887.72;;;19.38;88.59
43125;BME280;49182;50.788;7.318;2022-08-20T07:16:42;100897.81;;;19.51;88.81
43125;BME280;49182;50.788;7.318;2022-08-20T07:19:09;100897.28;;;19.56;88.96
43125;BME280;49182;50.788;7.318;2022-08-20T07:21:35;100904.00;;;19.66;88.87
43125;BME280;49182;50.788;7.318;2022-08-20T07:24:04;100906.78;;;19.58;87.34
43125;BME280;49182;50.788;7.318;2022-08-20T07:26:30;100907.34;;;19.68;87.79
43125;BME280;49182;50.788;7.318;2022-08-20T07:28:57;100911.38;;;19.79;87.05
43125;BME280;49182;50.788;7.318;2022-08-20T07:31:24;100916.84;;;19.71;86.19
43125;BME280;49182;50.788;7.318;2022-08-20T07:33:52;100916.09;;;19.77;84.23
43125;BME280;49182;50.788;7.318;2022-08-20T07:36:20;100918.75;;;19.77;84.06
43125;BME280;49182;50.788;7.318;2022-08-20T07:38:46;100925.03;;;19.84;83.53
43125;BME280;49182;50.788;7.318;2022-08-20T07:41:14;100904.63;;;19.83;84.18
43125;BME280;49182;50.788;7.318;2022-08-20T07:43:42;100921.97;;;20.02;83.61
43125;BME280;49182;50.788;7.318;2022-08-20T07:46:09;100923.88;;;20.08;82.81
43125;BME280;49182;50.788;7.318;2022-08-20T07:48:38;100918.25;;;20.03;82.59
43125;BME280;49182;50.788;7.318;2022-08-20T07:51:07;100925.91;;;20.06;81.20
43125;BME280;49182;50.788;7.318;2022-08-20T07:53:36;100923.28;;;20.27;81.72
43125;BME280;49182;50.788;7.318;2022-08-20T07:56:04;100921.22;;;20.44;81.73
43125;BME280;49182;50.788;7.318;2022-08-20T07:58:33;100921.28;;;20.50;80.47
43125;BME280;49182;50.788;7.318;2022-08-20T08:01:00;100929.47;;;20.64;80.25
43125;BME280;49182;50.788;7.318;2022-08-20T08:03:26;100905.91;;;20.59;79.34
43125;BME280;49182;50.788;7.318;2022-08-20T08:06:13;100929.09;;;20.67;77.58
43125;BME280;49182;50.788;7.318;2022-08-20T08:08:43;100929.41;;;20.57;77.41
43125;BME280;49182;50.788;7.318;2022-08-20T08:11:10;100933.88;;;20.71;77.53
43125;BME280;49182;50.788;7.318;2022-08-20T08:13:40;100934.13;;;20.76;77.68
43125;BME280;49182;50.788;7.318;2022-08-20T08:16:08;100934.13;;;20.76;78.01
43125;BME280;49182;50.788;7.318;2022-08-20T08:18:42;100938.91;;;20.81;77.13
43125;BME280;49182;50.788;7.318;2022-08-20T08:21:11;100929.41;;;20.78;75.80
43125;BME280;49182;50.788;7.318;2022-08-20T08:23:38;100944.56;;;20.86;76.40
43125;BME280;49182;50.788;7.318;2022-08-20T08:26:04;100935.75;;;20.98;76.85
43125;BME280;49182;50.788;7.318;2022-08-20T08:28:31;100942.06;;;21.12;76.58
43125;BME280;49182;50.788;7.318;2022-08-20T08:30:59;100923.09;;;21.14;75.42
43125;BME280;49182;50.788;7.318;2022-08-20T08:33:29;100946.97;;;21.30;75.86
43125;BME280;49182;50.788;7.318;2022-08-20T08:35:57;100938.78;;;21.38;75.04
43125;BME280;49182;50.788;7.318;2022-08-20T08:38:25;100934.88;;;21.41;73.12
43125;BME280;49182;50.788;7.318;2022-08-20T08:40:55;100937.28;;;21.63;72.31
43125;BME280;49182;50.788;7.318;2022-08-20T08:43:26;100944.44;;;21.84;72.52
43125;BME280;49182;50.788;7.318;2022-08-20T08:46:02;100949.53;;;22.07;72.33
43125;BME280;49182;50.788;7.318;2022-08-20T08:48:34;100943.34;;;22.13;69.97
43125;BME280;49182;50.788;7.318;2022-08-20T08:51:03;100952.84;;;22.09;70.05
43125;BME280;49182;50.788;7.318;2022-08-20T08:53:35;100949.09;;;22.10;69.53
43125;BME280;49182;50.788;7.318;2022-08-20T08:56:04;100955.16;;;22.18;69.74
43125;BME280;49182;50.788;7.318;2022-08-20T08:58:31;100951.00;;;22.23;69.09
43125;BME280;49182;50.788;7.318;2022-08-20T09:01:00;100958.69;;;22.26;68.16
43125;BME280;49182;50.788;7.318;2022-08-20T09:03:37;100954.19;;;22.46;68.08
43125;BME280;49182;50.788;7.318;2022-08-20T09:06:05;100956.69;;;22.54;66.81
43125;BME280;49182;50.788;7.318;2022-08-20T09:08:36;100953.22;;;22.73;67.06
43125;BME280;49182;50.788;7.318;2022-08-20T09:11:06;100960.91;;;22.76;65.50
43125;BME280;49182;50.788;7.318;2022-08-20T09:13:33;100963.00;;;22.87;64.37
43125;BME280;49182;50.788;7.318;2022-08-20T09:16:01;100955.09;;;22.79;64.13
43125;BME280;49182;50.788;7.318;2022-08-20T09:18:28;100956.13;;;22.85;65.41
43125;BME280;49182;50.788;7.318;2022-08-20T09:20:55;100960.72;;;22.97;64.62
43125;BME280;49182;50.788;7.318;2022-08-20T09:23:22;100950.97;;;22.83;64.35
43125;BME280;49182;50.788;7.318;2022-08-20T09:25:48;100955.53;;;23.03;64.00
43125;BME280;49182;50.788;7.318;2022-08-20T09:28:15;100957.19;;;23.23;64.10
43125;BME280;49182;50.788;7.318;2022-08-20T09:30:42;100957.38;;;23.15;62.92
43125;BME280;49182;50.788;7.318;2022-08-20T09:33:12;100974.81;;;23.32;62.47
43125;BME280;49182;50.788;7.318;2022-08-20T09:35:38;100967.75;;;23.12;61.85
43125;BME280;49182;50.788;7.318;2022-08-20T09:38:06;100971.69;;;23.16;60.29
43125;BME280;49182;50.788;7.318;2022-08-20T09:40:32;100963.41;;;23.24;61.23
43125;BME280;49182;50.788;7.318;2022-08-20T09:42:59;100961.28;;;23.46;60.23
43125;BME280;49182;50.788;7.318;2022-08-20T09:45:26;100969.19;;;23.40;60.37
43125;BME280;49182;50.788;7.318;2022-08-20T09:47:52;100962.78;;;23.28;59.46
43125;BME280;49182;50.788;7.318;2022-08-20T09:50:25;100966.50;;;23.47;59.41
43125;BME280;49182;50.788;7.318;2022-08-20T09:52:53;100959.44;;;23.53;59.15
43125;BME280;49182;50.788;7.318;2022-08-20T09:55:25;100950.09;;;23.68;58.96
43125;BME280;49182;50.788;7.318;2022-08-20T09:57:53;100959.41;;;23.66;59.69
43125;BME280;49182;50.788;7.318;2022-08-20T10:00:20;100942.25;;;23.47;60.31
43125;BME280;49182;50.788;7.318;2022-08-20T10:02:47;100956.34;;;23.49;60.86
43125;BME280;49182;50.788;7.318;2022-08-20T10:05:14;100961.72;;;23.62;59.59
43125;BME280;49182;50.788;7.318;2022-08-20T10:07:42;100961.09;;;23.60;58.71
43125;BME280;49182;50.788;7.318;2022-08-20T10:10:11;100955.50;;;23.68;58.32
43125;BME280;49182;50.788;7.318;2022-08-20T10:12:38;100971.50;;;23.50;59.28
43125;BME280;49182;50.788;7.318;2022-08-20T10:15:06;100962.97;;;23.47;58.94
43125;BME280;49182;50.788;7.318;2022-08-20T10:17:36;100961.28;;;23.46;58.79
43125;BME280;49182;50.788;7.318;2022-08-20T10:20:03;100972.06;;;23.72;58.79
43125;BME280;49182;50.788;7.318;2022-08-20T10:22:30;100965.81;;;23.85;58.98
43125;BME280;49182;50.788;7.318;2022-08-20T10:24:58;100969.84;;;24.13;58.29
43125;BME280;49182;50.788;7.318;2022-08-20T10:27:24;100964.56;;;24.38;57.91
43125;BME280;49182;50.788;7.318;2022-08-20T10:29:51;100970.91;;;24.19;56.00
43125;BME280;49182;50.788;7.318;2022-08-20T10:32:18;100966.91;;;24.28;57.71
43125;BME280;49182;50.788;7.318;2022-08-20T10:34:46;100955.00;;;24.42;57.48
43125;BME280;49182;50.788;7.318;2022-08-20T10:37:15;100977.19;;;24.44;54.38
43125;BME280;49182;50.788;7.318;2022-08-20T10:39:41;100969.66;;;24.53;55.98
43125;BME280;49182;50.788;7.318;2022-08-20T10:42:10;100970.84;;;24.64;54.67
43125;BME280;49182;50.788;7.318;2022-08-20T10:44:37;100987.13;;;24.50;53.30
43125;BME280;49182;50.788;7.318;2022-08-20T10:47:16;100976.00;;;24.72;54.36
43125;BME280;49182;50.788;7.318;2022-08-20T10:49:43;100978.38;;;24.93;54.26
43125;BME280;49182;50.788;7.318;2022-08-20T10:52:10;100974.22;;;24.90;50.67
43125;BME280;49182;50.788;7.318;2022-08-20T10:54:37;100969.16;;;25.01;53.11
43125;BME280;49182;50.788;7.318;2022-08-20T10:57:04;100982.03;;;25.05;53.20
43125;BME280;49182;50.788;7.318;2022-08-20T10:59:36;100979.91;;;25.32;52.51
43125;BME280;49182;50.788;7.318;2022-08-20T11:02:03;100979.66;;;25.15;52.08
43125;BME280;49182;50.788;7.318;2022-08-20T11:04:30;100974.06;;;25.35;51.45
43125;BME280;49182;50.788;7.318;2022-08-20T11:06:57;100977.34;;;25.37;51.30
43125;BME280;49182;50.788;7.318;2022-08-20T11:09:23;100980.16;;;25.30;51.04
43125;BME280;49182;50.788;7.318;2022-08-20T11:11:50;100989.56;;;25.21;51.87
43125;BME280;49182;50.788;7.318;2022-08-20T11:14:16;100989.66;;;24.77;53.51
43125;BME280;49182;50.788;7.318;2022-08-20T11:16:44;100990.41;;;24.97;52.87
43125;BME280;49182;50.788;7.318;2022-08-20T11:19:11;100981.94;;;24.87;52.27
43125;BME280;49182;50.788;7.318;2022-08-20T11:21:37;100986.25;;;24.88;52.20
43125;BME280;49182;50.788;7.318;2022-08-20T11:24:04;100978.72;;;25.03;52.86
43125;BME280;49182;50.788;7.318;2022-08-20T11:26:31;100988.19;;;25.12;52.41
43125;BME280;49182;50.788;7.318;2022-08-20T11:28:57;100984.31;;;25.02;51.76
43125;BME280;49182;50.788;7.318;2022-08-20T11:31:24;100987.59;;;25.10;52.15
43125;BME280;49182;50.788;7.318;2022-08-20T11:33:52;100976.63;;;25.30;51.80
43125;BME280;49182;50.788;7.318;2022-08-20T11:36:19;100972.06;;;25.49;50.18
43125;BME280;49182;50.788;7.318;2022-08-20T11:38:45;100977.81;;;25.59;49.24
43125;BME280;49182;50.788;7.318;2022-08-20T11:41:12;100967.25;;;25.51;49.41
43125;BME280;49182;50.788;7.318;2022-08-20T11:43:39;100975.66;;;25.67;50.19
43125;BME280;49182;50.788;7.318;2022-08-20T11:46:06;100982.34;;;25.40;49.16
43125;BME280;49182;50.788;7.318;2022-08-20T11:48:33;100987.63;;;25.53;48.65
43125;BME280;49182;50.788;7.318;2022-08-20T11:51:00;100983.53;;;25.69;48.46
43125;BME280;49182;50.788;7.318;2022-08-20T11:53:27;100985.13;;;25.95;48.44
43125;BME280;49182;50.788;7.318;2022-08-20T11:55:55;100985.41;;;26.05;47.17
43125;BME280;49182;50.788;7.318;2022-08-20T11:58:22;100983.09;;;26.27;46.54
43125;BME280;49182;50.788;7.318;2022-08-20T12:00:48;100983.63;;;26.35;44.88
43125;BME280;49182;50.788;7.318;2022-08-20T12:03:15;100980.91;;;26.65;44.42
43125;BME280;49182;50.788;7.318;2022-08-20T12:05:43;100965.81;;;26.69;44.01
43125;BME280;49182;50.788;7.318;2022-08-20T12:08:13;100977.94;;;26.67;43.08
43125;BME280;49182;50.788;7.318;2022-08-20T12:10:53;100973.28;;;26.85;42.78
43125;BME280;49182;50.788;7.318;2022-08-20T12:13:19;100977.06;;;26.84;41.21
43125;BME280;49182;50.788;7.318;2022-08-20T12:15:56;100983.63;;;27.18;42.05
43125;BME280;49182;50.788;7.318;2022-08-20T12:18:23;100973.81;;;27.41;42.69
43125;BME280;49182;50.788;7.318;2022-08-20T12:20:52;100964.66;;;27.53;40.15
43125;BME280;49182;50.788;7.318;2022-08-20T12:23:20;100958.75;;;27.45;41.76
43125;BME280;49182;50.788;7.318;2022-08-20T12:25:48;100976.91;;;27.32;41.49
43125;BME280;49182;50.788;7.318;2022-08-20T12:28:15;100960.75;;;27.03;40.09
43125;BME280;49182;50.788;7.318;2022-08-20T12:30:42;100958.19;;;26.78;40.51
43125;BME280;49182;50.788;7.318;2022-08-20T12:33:08;100974.34;;;26.84;42.01
43125;BME280;49182;50.788;7.318;2022-08-20T12:35:35;100961.81;;;27.13;42.37
43125;BME280;49182;50.788;7.318;2022-08-20T12:38:02;100963.91;;;27.23;42.14
43125;BME280;49182;50.788;7.318;2022-08-20T12:40:31;100965.34;;;27.14;41.80
43125;BME280;49182;50.788;7.318;2022-08-20T12:42:59;100960.03;;;27.19;41.71
43125;BME280;49182;50.788;7.318;2022-08-20T12:45:25;100950.63;;;27.21;42.39
43125;BME280;49182;50.788;7.318;2022-08-20T12:47:59;100950.97;;;27.25;42.59
43125;BME280;49182;50.788;7.318;2022-08-20T12:50:26;100971.47;;;27.09;42.04
43125;BME280;49182;50.788;7.318;2022-08-20T12:52:57;100976.34;;;26.77;42.80
43125;BME280;49182;50.788;7.318;2022-08-20T12:55:25;100967.09;;;26.96;42.29
43125;BME280;49182;50.788;7.318;2022-08-20T12:57:54;100970.03;;;26.95;41.11
43125;BME280;49182;50.788;7.318;2022-08-20T13:00:24;100965.06;;;26.92;41.05